الصفحة الرئيسية
METAR-TAF:

METAR-TAF

مطار :

كوراساو, جزر الأنتيل الهولندية

دائرة عرض: 12-12N, خط طول: 068-58W, ارتفاع: 9 متر

مراقبة الطقس الحالي

تاريخ ووقت الإصدار 25 دقيقة قبل الساعة 09:00UTC
ريح 11 عقدة من الشرق/الجنوب الشرقي
درجة الحرارة 27°درجة مئوية
الرطوبة 79%
ضغط 1015 hPa
الرؤية 10 كم أو أكثر
غيوم متفرقة على ارتفاع 1600 قدم

METAR: TNCC 170900Z AUTO 12011KT 9999 SCT016 27/23 Q1015

زمن: 05:25 (09:25 UTC)

توقعات

تاريخ ووقت الإصدار 6ساعات و 22 دقيقة قبل الساعة 03:03UTC
التوقعات صالحة من17 الساعة 06 UTC إلى 18 الساعة 06 UTC
ريح 12 عقدة من الشرق/الجنوب الشرقي
الرؤية 10 كم أو أكثر
غيوم قليلة على ارتفاع 1800 قدم
نظرية الاحتمالات 30%
من 17 الساعة 10 UTC إلى 17 الساعة 18 UTC
الرؤية: 7000 متر
غيوم مفككة على ارتفاع 1400 قدم
زخات من الأمطار الخفيفة
مؤقت
من 17 الساعة 13 UTC إلى 17 الساعة 20 UTC
ريح 15 عقدة من الشرق/الجنوب الشرقي تتزايد حتى 26 عقدة

TAF: TNCC 170303Z 1706/1806 11012KT 9999 FEW018 PROB30 1710/1718 7000 -SHRA BKN014 TEMPO 1713/1720 11015G26KT

أرصاد الطقس والتوقعات من أكثر من 4000 مطار (تقارير الطقس للمطار METAR والتنبؤ بالطقس بالمطارTAF).

المحطات المتاحة هي النقط الصفراء والحمراء على الخريطة.

حرك المؤشر فوق النقطة لمعرفة اسم المحطة.

ثم انقر لمعرفة أرصاد وتوقعات الطقس.

لتغيير الخارطة: اضغط على الأزرار الخضراء مع رمز الصليب الأسود للتكبير. على الزر الأخضر مع شرطة للتصغير، أو على الأسهم الخضراء للخرائط المجاورة.


METAR-TAF: